Time;durP1;ratioP1;P1;durP2;ratioP2;P2;SDS_P1;SDS_P2;PMS_P1;PMS_P2;Temp;Humidity;BMP_temperature;BMP_pressure;BME280_temperature;BME280_humidity;BME280_pressure;Samples;Min_cycle;Max_cycle;Signal;HPM_P1;HPM_P2
2021/10/16 00:01:38;;;;;;;2.83;1.90;;;17.60;67.50;;;;;;10498015;28;20029;-46
2021/10/16 00:06:39;;;;;;;3.42;1.88;;;17.50;67.50;;;;;;10496494;28;20117;-45
2021/10/16 00:11:40;;;;;;;3.47;1.73;;;17.50;67.50;;;;;;10498149;28;20047;-46
2021/10/16 00:16:40;;;;;;;3.03;2.10;;;17.50;67.50;;;;;;10497503;28;20037;-46
2021/10/16 00:21:41;;;;;;;3.83;2.05;;;17.50;67.50;;;;;;10497005;28;20037;-45
2021/10/16 00:26:42;;;;;;;3.42;1.60;;;17.50;67.60;;;;;;10497427;28;20028;-45
2021/10/16 00:31:43;;;;;;;3.55;1.75;;;17.60;66.90;;;;;;10497234;28;20477;-45
2021/10/16 00:36:43;;;;;;;3.50;1.77;;;17.60;66.80;;;;;;10497095;28;20173;-45
2021/10/16 00:41:44;;;;;;;3.92;2.00;;;17.70;66.60;;;;;;10496000;28;20046;-45
2021/10/16 00:46:46;;;;;;;5.85;2.42;;;17.70;66.60;;;;;;10496611;28;20520;-46
2021/10/16 00:51:47;;;;;;;6.13;2.17;;;17.60;66.60;;;;;;10507969;28;20032;-46
2021/10/16 00:56:50;;;;;;;4.63;1.80;;;17.70;71.70;;;;;;10495402;28;20066;-49
2021/10/16 01:01:51;;;;;;;3.08;1.85;;;17.70;71.00;;;;;;10496685;28;20035;-48
2021/10/16 01:06:52;;;;;;;4.15;2.03;;;17.70;70.80;;;;;;10496469;28;20492;-46
2021/10/16 01:11:54;;;;;;;6.40;2.33;;;17.70;70.60;;;;;;10496428;28;20039;-45
2021/10/16 01:16:57;;;;;;;3.00;1.65;;;17.60;70.30;;;;;;10496357;28;20116;-46
2021/10/16 01:22:00;;;;;;;3.58;1.92;;;17.60;70.20;;;;;;10478516;28;20032;-46
2021/10/16 01:27:02;;;;;;;4.07;1.95;;;17.60;70.00;;;;;;10495170;28;20028;-48
2021/10/16 01:32:03;;;;;;;2.83;1.63;;;17.50;69.70;;;;;;10500304;28;20024;-46
2021/10/16 01:37:04;;;;;;;5.10;2.83;;;17.50;69.70;;;;;;10503219;28;20059;-46
2021/10/16 01:42:05;;;;;;;4.30;1.90;;;17.40;69.60;;;;;;10503610;28;20033;-45
2021/10/16 01:47:05;;;;;;;2.92;1.85;;;17.40;69.10;;;;;;10503245;28;20032;-48
2021/10/16 01:52:06;;;;;;;2.88;1.40;;;17.50;69.30;;;;;;10514331;28;20036;-46
2021/10/16 01:57:07;;;;;;;4.05;1.80;;;17.50;68.40;;;;;;10502555;28;20033;-46
2021/10/16 02:02:07;;;;;;;5.90;3.05;;;17.50;68.30;;;;;;10502569;28;20611;-45
2021/10/16 02:07:08;;;;;;;3.85;1.88;;;17.50;68.30;;;;;;10501138;28;20120;-47
2021/10/16 02:12:09;;;;;;;3.88;2.08;;;17.50;68.20;;;;;;10502274;28;20036;-46
2021/10/16 02:17:09;;;;;;;4.80;2.13;;;17.60;67.70;;;;;;10494926;28;20080;-45
2021/10/16 02:22:10;;;;;;;3.65;1.83;;;17.60;67.60;;;;;;10501922;28;20125;-45
2021/10/16 02:27:11;;;;;;;3.88;2.10;;;17.60;67.50;;;;;;10500665;28;20067;-44
2021/10/16 02:32:11;;;;;;;3.28;2.55;;;17.60;67.40;;;;;;10500501;28;20497;-46
2021/10/16 02:37:12;;;;;;;3.30;1.90;;;17.70;67.10;;;;;;10500996;28;20040;-48
2021/10/16 02:42:13;;;;;;;3.47;2.03;;;17.70;67.10;;;;;;10500905;28;20032;-49
2021/10/16 02:47:13;;;;;;;5.15;1.90;;;17.70;67.00;;;;;;10499368;28;20103;-46
2021/10/16 02:52:14;;;;;;;4.00;2.20;;;17.80;66.80;;;;;;10512012;28;20520;-45
2021/10/16 02:57:15;;;;;;;4.22;2.20;;;17.80;66.70;;;;;;10500437;28;20055;-48
2021/10/16 03:02:15;;;;;;;3.03;1.85;;;17.70;66.70;;;;;;10500442;28;20158;-46
2021/10/16 03:07:16;;;;;;;4.78;2.05;;;17.70;66.80;;;;;;10499601;28;20044;-46
2021/10/16 03:12:17;;;;;;;3.05;1.80;;;17.60;66.80;;;;;;10499836;28;20103;-46
2021/10/16 03:17:18;;;;;;;3.90;2.00;;;17.60;66.90;;;;;;10488160;28;20040;-45
2021/10/16 03:22:18;;;;;;;4.57;2.08;;;17.60;66.80;;;;;;10499539;28;20036;-45
2021/10/16 03:27:19;;;;;;;3.92;1.98;;;17.70;66.80;;;;;;10499739;28;20115;-46
2021/10/16 03:32:20;;;;;;;3.50;1.95;;;17.60;66.70;;;;;;10499090;28;20024;-47
2021/10/16 03:37:20;;;;;;;3.40;1.92;;;17.60;66.80;;;;;;10498809;28;20076;-45
2021/10/16 03:42:21;;;;;;;3.72;1.98;;;17.50;66.90;;;;;;10498631;28;20396;-46
2021/10/16 03:47:22;;;;;;;3.17;2.00;;;17.50;66.80;;;;;;10498760;28;20056;-45
2021/10/16 03:52:23;;;;;;;4.68;2.60;;;17.70;66.60;;;;;;10509781;28;20064;-45
2021/10/16 03:57:23;;;;;;;3.20;1.70;;;17.70;66.40;;;;;;10497347;28;20111;-47
2021/10/16 04:02:26;;;;;;;5.07;2.00;;;17.70;66.40;;;;;;10496789;28;20427;-48
2021/10/16 04:07:26;;;;;;;2.53;1.63;;;17.60;66.50;;;;;;10497056;28;20028;-46
2021/10/16 04:12:27;;;;;;;3.90;2.17;;;17.60;66.70;;;;;;10495508;28;20024;-49
2021/10/16 04:17:28;;;;;;;3.65;2.00;;;17.60;66.70;;;;;;10496829;28;20032;-49
2021/10/16 04:22:28;;;;;;;3.25;1.88;;;17.60;66.80;;;;;;10496655;28;20051;-48
2021/10/16 04:27:29;;;;;;;3.88;1.85;;;17.60;66.50;;;;;;10495471;28;20492;-47
2021/10/16 04:32:30;;;;;;;3.75;2.25;;;17.70;66.30;;;;;;10497021;28;20457;-50
2021/10/16 04:37:31;;;;;;;4.22;1.65;;;17.70;66.40;;;;;;10495066;28;20041;-46
2021/10/16 04:42:32;;;;;;;3.00;2.00;;;17.70;66.20;;;;;;10482112;28;20028;-45
2021/10/16 04:47:33;;;;;;;3.88;2.05;;;17.90;65.70;;;;;;10496815;28;20068;-48
2021/10/16 04:52:35;;;;;;;3.60;2.03;;;18.20;64.90;;;;;;10499648;28;20028;-46
2021/10/16 04:57:35;;;;;;;5.60;2.30;;;18.50;63.90;;;;;;10496769;28;20407;-45
2021/10/16 05:02:36;;;;;;;6.28;2.72;;;18.70;64.00;;;;;;10496262;28;20052;-45
2021/10/16 05:07:37;;;;;;;8.23;2.28;;;18.80;65.50;;;;;;10502709;28;20063;-47
2021/10/16 05:12:38;;;;;;;8.43;2.90;;;18.80;64.90;;;;;;10504407;28;20032;-47
2021/10/16 05:17:38;;;;;;;10.15;2.55;;;18.80;65.50;;;;;;10503830;28;20498;-46
2021/10/16 05:22:39;;;;;;;6.75;2.53;;;18.70;66.00;;;;;;10504153;28;20086;-47
2021/10/16 05:27:40;;;;;;;10.50;3.25;;;18.60;66.20;;;;;;10504367;28;20043;-45
2021/10/16 05:32:41;;;;;;;5.30;2.20;;;18.60;66.20;;;;;;10503587;28;20109;-47
2021/10/16 05:37:42;;;;;;;8.25;2.85;;;18.60;66.40;;;;;;10503479;28;20052;-45
2021/10/16 05:42:42;;;;;;;7.60;2.83;;;18.60;65.90;;;;;;10503270;28;20044;-47
2021/10/16 05:47:43;;;;;;;7.75;2.35;;;18.50;65.90;;;;;;10501952;28;20138;-49
2021/10/16 05:52:44;;;;;;;8.68;2.63;;;18.60;66.00;;;;;;10508010;28;20162;-45
2021/10/16 05:57:44;;;;;;;10.45;3.33;;;18.70;65.70;;;;;;10494978;28;20029;-49
2021/10/16 06:02:45;;;;;;;8.32;2.60;;;18.70;66.30;;;;;;10500478;28;20066;-52
2021/10/16 06:07:46;;;;;;;8.15;2.20;;;18.70;66.00;;;;;;10501767;28;20052;-51
2021/10/16 06:12:47;;;;;;;10.95;2.92;;;18.70;66.10;;;;;;10497426;28;20111;-51
2021/10/16 06:17:47;;;;;;;7.75;2.97;;;18.70;66.00;;;;;;10491092;28;20047;-50
2021/10/16 06:22:49;;;;;;;7.78;2.08;;;18.70;66.40;;;;;;10500112;28;20449;-47
2021/10/16 06:27:50;;;;;;;7.95;2.53;;;18.60;66.60;;;;;;10501732;28;20411;-47
2021/10/16 06:32:51;;;;;;;9.82;2.53;;;18.50;67.00;;;;;;10500807;28;20066;-54
2021/10/16 06:37:51;;;;;;;6.25;2.45;;;18.40;67.20;;;;;;10500908;28;20468;-51
2021/10/16 06:42:52;;;;;;;10.00;2.25;;;18.30;67.80;;;;;;10499930;28;20083;-47
2021/10/16 06:47:52;;;;;;;9.65;2.50;;;18.20;68.00;;;;;;10498967;28;20056;-50
2021/10/16 06:52:53;;;;;;;7.10;2.50;;;18.20;68.40;;;;;;10506018;28;20119;-53
2021/10/16 06:57:54;;;;;;;15.15;3.00;;;18.20;68.80;;;;;;10499019;28;20129;-48
2021/10/16 07:02:55;;;;;;;13.40;2.70;;;18.20;68.70;;;;;;10499766;28;20098;-49
2021/10/16 07:07:55;;;;;;;7.47;2.60;;;18.20;68.50;;;;;;10499738;28;20102;-55
2021/10/16 07:12:56;;;;;;;7.80;2.75;;;18.10;68.70;;;;;;10497830;28;20476;-50
2021/10/16 07:17:57;;;;;;;7.18;2.20;;;18.20;68.60;;;;;;10499338;28;20120;-49
2021/10/16 07:22:58;;;;;;;7.88;2.65;;;18.30;67.80;;;;;;10498301;28;20433;-47
2021/10/16 07:27:58;;;;;;;5.70;2.30;;;18.30;68.00;;;;;;10498406;28;20393;-48
2021/10/16 07:32:59;;;;;;;8.77;2.50;;;18.40;67.60;;;;;;10497209;28;20021;-53
2021/10/16 07:38:00;;;;;;;14.77;3.85;;;18.40;67.40;;;;;;10497998;28;20079;-51
2021/10/16 07:43:00;;;;;;;12.80;3.22;;;18.40;68.00;;;;;;10490042;28;20507;-49
2021/10/16 07:48:01;;;;;;;12.48;2.97;;;18.40;68.80;;;;;;10496090;28;20047;-52
2021/10/16 07:53:03;;;;;;;13.00;3.60;;;18.40;69.00;;;;;;10501711;28;20032;-47
2021/10/16 07:58:03;;;;;;;15.70;3.08;;;18.40;69.50;;;;;;10490651;28;20025;-47
2021/10/16 08:03:04;;;;;;;13.02;3.17;;;18.40;69.40;;;;;;10495123;28;21268;-55
2021/10/16 08:08:05;;;;;;;11.75;3.10;;;18.30;69.40;;;;;;10496260;28;20048;-50
2021/10/16 08:13:06;;;;;;;9.88;2.85;;;18.20;69.50;;;;;;10489119;28;20036;-52
2021/10/16 08:18:07;;;;;;;10.40;3.10;;;18.10;69.50;;;;;;10492498;28;20074;-47
2021/10/16 08:23:08;;;;;;;9.25;2.58;;;18.00;69.60;;;;;;10496184;28;20058;-49
2021/10/16 08:28:14;;;;;;;12.35;2.88;;;18.00;69.80;;;;;;10497100;28;20481;-53
2021/10/16 08:33:19;;;;;;;17.95;3.25;;;17.90;69.70;;;;;;10496463;28;20043;-51
2021/10/16 08:38:20;;;;;;;11.10;2.80;;;17.90;69.70;;;;;;10495150;28;20501;-52
2021/10/16 08:43:21;;;;;;;8.57;3.05;;;17.90;69.60;;;;;;10488155;28;20036;-50
2021/10/16 08:48:22;;;;;;;10.57;3.42;;;17.90;69.60;;;;;;10497984;28;20024;-50
2021/10/16 08:53:22;;;;;;;9.63;3.33;;;18.00;69.30;;;;;;10498433;28;20062;-61
2021/10/16 08:58:23;;;;;;;10.65;3.53;;;18.10;69.50;;;;;;10495451;28;20025;-52
2021/10/16 09:03:54;;;;;;;9.15;2.97;;;18.20;69.20;;;;;;10495618;28;20033;-49
2021/10/16 09:09:09;;;;;;;13.48;3.03;;;18.30;68.60;;;;;;10486056;28;20037;-47
2021/10/16 09:14:31;;;;;;;7.85;2.60;;;18.40;68.20;;;;;;10493628;28;20033;-51
2021/10/16 09:19:38;;;;;;;11.15;3.03;;;18.30;68.20;;;;;;10492066;28;20083;-47
2021/10/16 09:24:43;;;;;;;8.85;3.05;;;18.30;68.40;;;;;;10493490;28;20078;-48
2021/10/16 09:29:48;;;;;;;7.93;2.63;;;18.20;68.50;;;;;;10491580;28;20028;-49
2021/10/16 09:34:57;;;;;;;10.30;2.85;;;18.20;68.70;;;;;;10489982;28;20473;-52
2021/10/16 09:40:01;;;;;;;9.05;2.60;;;18.10;68.80;;;;;;10474600;28;20135;-53
2021/10/16 09:45:06;;;;;;;6.65;2.90;;;18.00;68.90;;;;;;10495105;28;20044;-48
2021/10/16 09:50:09;;;;;;;8.77;3.00;;;18.00;69.00;;;;;;10501301;28;20448;-49
2021/10/16 09:55:14;;;;;;;7.68;2.67;;;18.10;68.60;;;;;;10501303;28;20039;-52
2021/10/16 10:00:15;;;;;;;6.22;3.30;;;18.10;68.40;;;;;;10501080;28;20040;-52
2021/10/16 10:05:20;;;;;;;9.07;2.90;;;18.10;68.40;;;;;;10500983;28;20508;-51
2021/10/16 10:10:21;;;;;;;10.75;3.08;;;18.20;68.30;;;;;;10497423;28;20036;-55
2021/10/16 10:15:22;;;;;;;7.50;3.55;;;18.20;68.20;;;;;;10495262;28;20032;-48
2021/10/16 10:20:26;;;;;;;9.90;3.05;;;18.20;68.30;;;;;;10495974;28;20032;-51
2021/10/16 10:25:27;;;;;;;8.85;2.90;;;18.30;68.30;;;;;;10501735;28;20068;-52
2021/10/16 10:30:40;;;;;;;9.85;3.17;;;18.50;68.50;;;;;;10501225;28;20036;-49
2021/10/16 10:36:18;;;;;;;12.05;3.08;;;18.50;68.60;;;;;;10501290;28;20043;-50
2021/10/16 10:41:24;;;;;;;7.50;2.78;;;18.50;69.10;;;;;;10483670;28;20131;-50
2021/10/16 10:46:28;;;;;;;9.38;3.65;;;18.40;68.70;;;;;;10500638;28;20036;-50
2021/10/16 10:51:36;;;;;;;9.93;3.00;;;18.30;68.70;;;;;;10503803;28;20024;-53
2021/10/16 10:56:39;;;;;;;9.95;2.92;;;18.20;68.50;;;;;;10499524;28;20583;-53
2021/10/16 11:02:01;;;;;;;10.35;2.65;;;18.20;68.50;;;;;;10497203;28;20366;-49
2021/10/16 11:07:05;;;;;;;8.73;2.80;;;18.20;68.40;;;;;;10496201;28;20047;-50
2021/10/16 11:12:08;;;;;;;4.82;2.72;;;18.20;69.00;;;;;;10494893;28;20032;-51
2021/10/16 11:17:14;;;;;;;5.82;2.30;;;18.20;68.40;;;;;;10483969;28;20055;-50
2021/10/16 11:22:15;;;;;;;7.28;2.75;;;18.20;68.50;;;;;;10495933;28;20040;-52
2021/10/16 11:27:23;;;;;;;6.20;2.42;;;18.20;68.60;;;;;;10497912;28;20032;-48
2021/10/16 11:32:25;;;;;;;7.47;2.42;;;18.10;68.70;;;;;;10498424;28;20051;-53
2021/10/16 11:37:47;;;;;;;7.05;2.17;;;18.10;68.80;;;;;;10496979;28;20043;-53
2021/10/16 11:43:09;;;;;;;8.82;2.80;;;18.10;68.90;;;;;;10496930;28;20041;-50
2021/10/16 11:48:13;;;;;;;5.75;2.50;;;18.10;68.90;;;;;;10488511;28;20464;-52
2021/10/16 11:53:25;;;;;;;5.95;2.72;;;18.10;69.20;;;;;;10507682;28;20115;-49
2021/10/16 11:58:29;;;;;;;6.15;2.17;;;18.00;69.20;;;;;;10496738;28;20021;-49
2021/10/16 12:03:40;;;;;;;4.20;1.83;;;18.00;69.40;;;;;;10497394;28;20033;-51
2021/10/16 12:08:59;;;;;;;9.30;2.33;;;17.90;69.50;;;;;;10497361;28;20158;-49
2021/10/16 12:14:04;;;;;;;5.20;2.30;;;17.90;69.60;;;;;;10484131;28;20033;-52
2021/10/16 12:19:15;;;;;;;5.53;2.03;;;17.90;69.70;;;;;;10496990;28;20461;-50
2021/10/16 12:24:24;;;;;;;5.25;2.05;;;17.90;69.90;;;;;;10495671;28;20033;-51
2021/10/16 12:29:33;;;;;;;4.95;2.10;;;17.80;69.90;;;;;;10497537;28;20027;-48
2021/10/16 12:34:41;;;;;;;4.55;2.63;;;17.80;69.90;;;;;;10495541;28;20040;-49
2021/10/16 12:39:45;;;;;;;4.95;2.40;;;17.90;69.60;;;;;;10496507;28;20124;-49
2021/10/16 12:44:51;;;;;;;4.13;2.17;;;17.90;69.60;;;;;;10495580;28;20032;-49
2021/10/16 12:49:52;;;;;;;4.35;2.30;;;17.90;69.40;;;;;;10507705;28;20043;-52
2021/10/16 12:54:57;;;;;;;5.07;1.60;;;18.00;68.90;;;;;;10496358;28;20386;-53
2021/10/16 13:00:00;;;;;;;7.50;1.80;;;18.10;68.70;;;;;;10496179;28;20078;-53
2021/10/16 13:05:01;;;;;;;5.43;2.25;;;18.10;68.50;;;;;;10496471;28;20079;-49
2021/10/16 13:10:02;;;;;;;5.75;2.28;;;18.10;68.60;;;;;;10496045;28;20068;-53
2021/10/16 13:15:06;;;;;;;5.80;1.88;;;18.10;68.50;;;;;;10494758;28;20024;-52
2021/10/16 13:20:09;;;;;;;3.92;1.83;;;18.20;68.10;;;;;;10496196;28;20496;-50
2021/10/16 13:25:11;;;;;;;5.53;2.03;;;18.20;68.00;;;;;;10495574;28;20033;-49
2021/10/16 13:30:17;;;;;;;6.82;1.88;;;18.20;68.10;;;;;;10502807;28;20024;-49
2021/10/16 13:35:18;;;;;;;4.75;1.92;;;18.20;68.20;;;;;;10503276;28;20036;-51
2021/10/16 13:40:19;;;;;;;5.70;2.30;;;18.10;68.40;;;;;;10502038;28;20112;-51
2021/10/16 13:45:20;;;;;;;5.15;2.08;;;18.10;68.60;;;;;;10502980;28;20035;-48
2021/10/16 13:50:20;;;;;;;7.18;2.22;;;18.00;68.80;;;;;;10514288;28;20113;-52
2021/10/16 13:55:21;;;;;;;4.63;2.28;;;18.00;68.90;;;;;;10502654;28;20060;-51
2021/10/16 14:00:22;;;;;;;4.72;1.70;;;18.00;68.60;;;;;;10501361;28;20079;-48
2021/10/16 14:05:23;;;;;;;3.17;2.00;;;18.00;68.30;;;;;;10502160;28;20035;-53
2021/10/16 14:10:24;;;;;;;4.78;1.75;;;17.90;68.90;;;;;;10502520;28;20082;-67
2021/10/16 14:15:25;;;;;;;3.67;1.50;;;18.00;68.30;;;;;;10489491;28;20062;-53
2021/10/16 14:20:25;;;;;;;6.15;2.33;;;17.90;68.90;;;;;;10502023;28;20033;-51
2021/10/16 14:25:26;;;;;;;6.03;2.25;;;17.90;67.70;;;;;;10501240;28;20029;-50
2021/10/16 14:30:27;;;;;;;5.07;1.95;;;17.90;67.90;;;;;;10501574;28;20028;-51
2021/10/16 14:35:27;;;;;;;4.15;1.90;;;17.80;67.60;;;;;;10501149;28;20070;-51
2021/10/16 14:40:28;;;;;;;4.95;1.73;;;17.80;68.00;;;;;;10500213;28;20414;-51
2021/10/16 14:45:29;;;;;;;4.07;1.90;;;17.80;68.90;;;;;;10500818;28;20024;-52
2021/10/16 14:50:30;;;;;;;4.03;1.77;;;17.80;69.70;;;;;;10510662;28;20020;-52
2021/10/16 14:55:30;;;;;;;3.38;1.75;;;17.80;69.20;;;;;;10500164;28;20111;-53
2021/10/16 15:00:32;;;;;;;7.43;1.85;;;17.80;68.90;;;;;;10498934;28;20029;-52
2021/10/16 15:05:33;;;;;;;5.80;2.03;;;17.90;68.80;;;;;;10498545;28;20039;-50
2021/10/16 15:10:33;;;;;;;5.07;2.10;;;17.80;68.70;;;;;;10498458;28;20028;-50
2021/10/16 15:15:35;;;;;;;5.65;1.90;;;17.90;68.30;;;;;;10486708;28;20047;-48
2021/10/16 15:20:36;;;;;;;4.68;2.33;;;18.00;67.80;;;;;;10498253;28;20444;-51
2021/10/16 15:25:36;;;;;;;5.22;1.73;;;18.10;67.30;;;;;;10498994;28;20040;-47
2021/10/16 15:30:37;;;;;;;2.70;1.17;;;18.20;67.00;;;;;;10499151;28;20108;-52
2021/10/16 15:35:38;;;;;;;5.90;1.92;;;18.20;66.80;;;;;;10497300;28;20039;-52
2021/10/16 15:40:39;;;;;;;2.78;1.60;;;18.20;66.80;;;;;;10498276;28;20130;-51
2021/10/16 15:45:39;;;;;;;2.92;1.52;;;18.20;66.90;;;;;;10498331;28;20078;-49
2021/10/16 15:50:40;;;;;;;4.57;1.58;;;18.20;66.90;;;;;;10509586;28;20104;-48
2021/10/16 15:55:41;;;;;;;4.20;1.67;;;18.20;67.00;;;;;;10497416;28;20385;-53
2021/10/16 16:00:42;;;;;;;5.22;1.70;;;18.10;67.10;;;;;;10513178;28;20075;-50
2021/10/16 16:05:44;;;;;;;3.20;1.80;;;18.10;67.30;;;;;;10497300;28;20035;-52
2021/10/16 16:10:44;;;;;;;5.00;1.70;;;18.00;67.50;;;;;;10497380;28;20041;-48
2021/10/16 16:15:45;;;;;;;4.07;1.55;;;18.00;67.40;;;;;;10496052;28;20028;-50
2021/10/16 16:20:46;;;;;;;4.10;1.83;;;18.20;67.10;;;;;;10497308;28;20047;-48
2021/10/16 16:25:47;;;;;;;4.78;1.88;;;18.20;67.00;;;;;;10496934;28;20456;-48
2021/10/16 16:30:47;;;;;;;3.55;1.70;;;18.20;66.70;;;;;;10497410;28;20024;-47
2021/10/16 16:35:48;;;;;;;1.80;1.35;;;18.30;66.50;;;;;;10496602;28;20052;-48
2021/10/16 16:40:50;;;;;;;5.00;2.50;;;18.20;66.50;;;;;;10495490;28;20048;-48
2021/10/16 16:45:51;;;;;;;3.88;1.95;;;18.20;66.60;;;;;;10496483;28;20036;-47
2021/10/16 16:50:52;;;;;;;5.47;1.70;;;18.10;66.70;;;;;;10506742;28;20154;-48
2021/10/16 16:55:52;;;;;;;2.90;1.42;;;18.20;66.70;;;;;;10495110;28;20078;-52
2021/10/16 17:00:53;;;;;;;4.47;1.80;;;18.20;66.60;;;;;;10498105;28;20108;-50
2021/10/16 17:05:54;;;;;;;3.25;1.50;;;18.20;66.60;;;;;;10503812;28;20155;-48
2021/10/16 17:10:55;;;;;;;3.05;1.27;;;18.20;66.70;;;;;;10504971;28;20463;-48
2021/10/16 17:15:56;;;;;;;3.90;1.80;;;18.20;66.50;;;;;;10492598;28;20528;-49
2021/10/16 17:20:56;;;;;;;2.17;1.50;;;18.30;66.10;;;;;;10503711;28;20120;-48
2021/10/16 17:25:57;;;;;;;4.55;1.58;;;18.30;66.10;;;;;;10504225;28;20031;-52
2021/10/16 17:30:58;;;;;;;3.83;1.60;;;18.30;66.20;;;;;;10503445;28;20124;-50
2021/10/16 17:35:59;;;;;;;7.80;2.00;;;18.30;66.40;;;;;;10503924;28;20111;-50
2021/10/16 17:41:00;;;;;;;3.72;2.08;;;18.20;66.70;;;;;;10503051;28;20477;-49
2021/10/16 17:46:00;;;;;;;5.68;2.08;;;18.20;66.50;;;;;;10503502;28;20025;-47
2021/10/16 17:51:01;;;;;;;3.17;1.23;;;18.30;66.40;;;;;;10514416;28;20032;-49
2021/10/16 17:56:02;;;;;;;3.65;1.35;;;18.20;66.40;;;;;;10503098;28;20064;-51
2021/10/16 18:01:03;;;;;;;3.20;1.80;;;18.20;66.60;;;;;;10502065;28;20377;-54
2021/10/16 18:06:05;;;;;;;9.02;1.85;;;18.20;66.50;;;;;;10502416;28;20020;-48
2021/10/16 18:11:07;;;;;;;3.97;1.88;;;18.20;66.40;;;;;;10501448;28;20063;-50
2021/10/16 18:16:07;;;;;;;4.70;1.98;;;18.20;66.40;;;;;;10489391;28;20036;-49
2021/10/16 18:21:09;;;;;;;3.28;1.95;;;18.20;66.60;;;;;;10500189;28;20032;-54
2021/10/16 18:26:09;;;;;;;4.30;1.70;;;18.10;66.60;;;;;;10500921;28;20039;-49
2021/10/16 18:31:11;;;;;;;4.53;1.90;;;18.20;66.70;;;;;;10493087;28;20342;-50
2021/10/16 18:36:11;;;;;;;4.78;1.55;;;18.30;66.50;;;;;;10500097;28;20037;-53
2021/10/16 18:41:12;;;;;;;6.88;2.50;;;18.40;65.90;;;;;;10496481;28;20536;-53
2021/10/16 18:46:13;;;;;;;6.20;2.40;;;18.50;65.80;;;;;;10499414;28;20037;-51
2021/10/16 18:51:14;;;;;;;4.75;2.17;;;18.50;65.90;;;;;;10502060;28;20035;-49
2021/10/16 18:56:14;;;;;;;6.00;2.53;;;18.50;66.20;;;;;;10500658;28;20101;-50
2021/10/16 19:01:16;;;;;;;7.22;2.22;;;18.50;66.50;;;;;;10501002;28;20064;-49
2021/10/16 19:06:19;;;;;;;7.55;2.60;;;18.40;66.70;;;;;;10500089;28;20102;-50
2021/10/16 19:11:20;;;;;;;6.93;2.60;;;18.40;66.90;;;;;;10499270;28;20036;-54
2021/10/16 19:16:21;;;;;;;3.42;2.15;;;18.30;67.60;;;;;;10499240;28;20028;-52
2021/10/16 19:21:22;;;;;;;4.65;2.80;;;18.30;67.50;;;;;;10498174;28;20028;-51
2021/10/16 19:26:22;;;;;;;4.60;2.50;;;18.20;67.60;;;;;;10496658;28;20543;-52
2021/10/16 19:31:23;;;;;;;7.07;2.28;;;18.20;67.80;;;;;;10500976;28;20044;-48
2021/10/16 19:36:25;;;;;;;12.10;2.70;;;18.20;67.90;;;;;;10500116;28;20397;-52
2021/10/16 19:41:25;;;;;;;3.70;2.13;;;18.10;67.80;;;;;;10531564;28;20170;-54
2021/10/16 19:46:29;;;;;;;6.03;2.58;;;18.10;68.00;;;;;;10498707;28;20504;-53
2021/10/16 19:51:30;;;;;;;7.40;2.92;;;18.00;68.10;;;;;;10509754;28;20032;-54
2021/10/16 19:56:31;;;;;;;7.60;2.75;;;17.90;68.10;;;;;;10485867;28;20115;-55
2021/10/16 20:01:32;;;;;;;5.10;2.42;;;17.90;68.10;;;;;;10495704;28;20050;-53
2021/10/16 20:06:32;;;;;;;4.60;2.58;;;17.80;68.00;;;;;;10511721;28;20034;-50
2021/10/16 20:11:33;;;;;;;5.90;3.17;;;17.80;68.00;;;;;;10496766;28;20029;-53
2021/10/16 20:16:34;;;;;;;4.55;3.00;;;17.80;68.00;;;;;;10497472;28;20043;-51
2021/10/16 20:21:35;;;;;;;5.45;2.88;;;17.80;68.00;;;;;;10497679;28;20487;-50
2021/10/16 20:26:35;;;;;;;4.90;3.00;;;17.70;68.10;;;;;;10497204;28;20024;-50
2021/10/16 20:31:36;;;;;;;5.75;3.22;;;17.70;68.10;;;;;;10497364;28;20119;-51
2021/10/16 20:36:37;;;;;;;6.85;3.35;;;17.70;68.20;;;;;;10496182;28;20039;-51
2021/10/16 20:41:37;;;;;;;3.70;2.47;;;17.70;68.20;;;;;;10496980;28;20072;-52
2021/10/16 20:46:38;;;;;;;3.97;2.20;;;17.60;68.40;;;;;;10496819;28;20111;-52
2021/10/16 20:51:39;;;;;;;4.45;3.15;;;17.60;68.40;;;;;;10508330;28;20031;-52
2021/10/16 20:56:40;;;;;;;5.72;3.33;;;17.60;68.50;;;;;;10495402;28;20036;-52
2021/10/16 21:01:41;;;;;;;5.28;3.08;;;17.60;68.50;;;;;;10496836;28;20039;-53
2021/10/16 21:06:42;;;;;;;4.18;2.83;;;17.50;68.60;;;;;;10496485;28;20035;-50
2021/10/16 21:11:42;;;;;;;5.20;2.70;;;17.50;68.60;;;;;;10495574;28;20552;-52
2021/10/16 21:16:50;;;;;;;5.55;3.28;;;17.50;68.70;;;;;;10494854;28;20051;-52
2021/10/16 21:21:50;;;;;;;3.45;2.33;;;17.50;68.70;;;;;;10496277;28;20033;-51
2021/10/16 21:26:51;;;;;;;5.22;3.25;;;17.50;68.70;;;;;;10495866;28;20078;-51
2021/10/16 21:31:54;;;;;;;4.13;2.40;;;17.40;68.60;;;;;;10494821;28;20112;-54
2021/10/16 21:36:55;;;;;;;4.05;2.55;;;17.40;68.60;;;;;;10496269;28;20040;-53
2021/10/16 21:41:56;;;;;;;4.38;2.70;;;17.40;68.60;;;;;;10495502;28;20049;-51
2021/10/16 21:46:56;;;;;;;3.67;2.50;;;17.40;68.70;;;;;;10497421;28;20033;-53
2021/10/16 21:52:00;;;;;;;3.88;2.10;;;17.40;68.70;;;;;;10514701;28;20039;-53
2021/10/16 21:57:00;;;;;;;5.57;2.72;;;17.40;68.70;;;;;;10503181;28;20108;-51
2021/10/16 22:02:01;;;;;;;5.07;2.65;;;17.30;68.60;;;;;;10502824;28;20548;-53
2021/10/16 22:07:02;;;;;;;4.13;2.60;;;17.40;68.50;;;;;;10502590;28;20104;-51
2021/10/16 22:12:03;;;;;;;5.72;2.55;;;17.40;68.40;;;;;;10502494;28;20046;-52
2021/10/16 22:17:04;;;;;;;4.07;2.35;;;17.40;68.30;;;;;;10490248;28;20040;-52
2021/10/16 22:22:06;;;;;;;9.10;2.92;;;17.40;68.30;;;;;;10501158;28;20028;-54
2021/10/16 22:27:07;;;;;;;4.43;2.55;;;17.50;68.20;;;;;;10500983;28;20032;-55
2021/10/16 22:32:07;;;;;;;4.28;2.33;;;17.50;68.20;;;;;;10501620;28;20032;-52
2021/10/16 22:37:08;;;;;;;4.15;2.63;;;17.50;68.00;;;;;;10501323;28;20036;-52
2021/10/16 22:42:11;;;;;;;3.90;2.42;;;17.50;67.90;;;;;;10500909;28;20136;-54
2021/10/16 22:47:12;;;;;;;6.65;2.67;;;17.60;67.70;;;;;;10501404;28;20028;-53
2021/10/16 22:52:12;;;;;;;3.88;2.30;;;17.60;67.60;;;;;;10512225;28;20169;-54
2021/10/16 22:57:20;;;;;;;3.88;2.75;;;17.60;67.70;;;;;;10500696;28;20036;-54
2021/10/16 23:02:20;;;;;;;5.72;2.88;;;17.50;67.70;;;;;;10499773;28;20040;-55
2021/10/16 23:07:21;;;;;;;4.82;2.83;;;17.50;67.70;;;;;;10482106;28;20481;-55
2021/10/16 23:12:21;;;;;;;5.00;3.00;;;17.50;67.80;;;;;;10500164;28;20125;-55
2021/10/16 23:17:22;;;;;;;3.78;2.55;;;17.50;67.90;;;;;;10499918;28;20108;-55
2021/10/16 23:22:23;;;;;;;5.45;3.10;;;17.50;67.80;;;;;;10498739;28;20036;-54
2021/10/16 23:27:24;;;;;;;4.72;2.60;;;17.40;67.70;;;;;;10499677;28;20035;-53
2021/10/16 23:32:25;;;;;;;3.75;2.45;;;17.40;67.70;;;;;;10499631;28;20037;-54
2021/10/16 23:37:31;;;;;;;3.85;2.38;;;17.40;67.70;;;;;;10497892;28;20247;-53
2021/10/16 23:42:32;;;;;;;5.60;3.03;;;17.40;67.70;;;;;;10498771;28;20114;-55
2021/10/16 23:47:33;;;;;;;4.65;2.85;;;17.40;67.60;;;;;;10497704;28;20112;-54
2021/10/16 23:52:34;;;;;;;3.97;2.47;;;17.50;67.60;;;;;;10510028;28;20025;-55
2021/10/16 23:57:35;;;;;;;4.55;2.60;;;17.50;67.30;;;;;;10498403;28;20037;-55
